sensor_id;sensor_type;location;lat;lon;timestamp;pressure;altitude;pressure_sealevel;temperature;humidity
77321;BME280;66382;52.252;8.780;2023-03-11T00:00:17;99167.88;;;1.23;75.59
77321;BME280;66382;52.252;8.780;2023-03-11T00:02:44;99163.72;;;1.20;76.67
77321;BME280;66382;52.252;8.780;2023-03-11T00:05:13;99180.09;;;1.24;75.79
77321;BME280;66382;52.252;8.780;2023-03-11T00:07:40;99190.16;;;1.28;76.61
77321;BME280;66382;52.252;8.780;2023-03-11T00:10:07;99191.50;;;1.33;75.36
77321;BME280;66382;52.252;8.780;2023-03-11T00:12:33;99187.69;;;1.35;75.59
77321;BME280;66382;52.252;8.780;2023-03-11T00:15:00;99203.72;;;1.34;75.89
77321;BME280;66382;52.252;8.780;2023-03-11T00:17:26;99201.09;;;1.34;75.82
77321;BME280;66382;52.252;8.780;2023-03-11T00:19:51;99208.81;;;1.35;75.85
77321;BME280;66382;52.252;8.780;2023-03-11T00:22:17;99197.09;;;1.29;75.27
77321;BME280;66382;52.252;8.780;2023-03-11T00:24:43;99195.25;;;1.22;75.53
77321;BME280;66382;52.252;8.780;2023-03-11T00:27:08;99221.53;;;1.32;75.71
77321;BME280;66382;52.252;8.780;2023-03-11T00:29:34;99224.47;;;1.28;75.80
77321;BME280;66382;52.252;8.780;2023-03-11T00:32:01;99235.88;;;1.29;75.38
77321;BME280;66382;52.252;8.780;2023-03-11T00:34:27;99238.53;;;1.29;75.55
77321;BME280;66382;52.252;8.780;2023-03-11T00:36:53;99240.97;;;1.31;75.43
77321;BME280;66382;52.252;8.780;2023-03-11T00:39:18;99247.13;;;1.31;75.91
77321;BME280;66382;52.252;8.780;2023-03-11T00:41:44;99260.31;;;1.31;75.25
77321;BME280;66382;52.252;8.780;2023-03-11T00:44:10;99256.00;;;1.30;75.12
77321;BME280;66382;52.252;8.780;2023-03-11T00:46:35;99263.09;;;1.29;75.27
77321;BME280;66382;52.252;8.780;2023-03-11T00:49:03;99261.09;;;1.23;75.21
77321;BME280;66382;52.252;8.780;2023-03-11T00:51:28;99276.63;;;1.26;75.15
77321;BME280;66382;52.252;8.780;2023-03-11T00:53:54;99281.59;;;1.29;75.92
77321;BME280;66382;52.252;8.780;2023-03-11T00:56:20;99277.78;;;1.32;75.73
77321;BME280;66382;52.252;8.780;2023-03-11T00:58:45;99280.59;;;1.31;75.38
77321;BME280;66382;52.252;8.780;2023-03-11T01:01:13;99284.56;;;1.35;75.53
77321;BME280;66382;52.252;8.780;2023-03-11T01:03:39;99288.84;;;1.36;75.60
77321;BME280;66382;52.252;8.780;2023-03-11T01:06:07;99294.81;;;1.38;75.22
77321;BME280;66382;52.252;8.780;2023-03-11T01:08:33;99305.03;;;1.41;75.14
77321;BME280;66382;52.252;8.780;2023-03-11T01:11:00;99303.25;;;1.41;75.20
77321;BME280;66382;52.252;8.780;2023-03-11T01:13:27;99313.16;;;1.39;75.30
77321;BME280;66382;52.252;8.780;2023-03-11T01:15:53;99317.91;;;1.36;75.64
77321;BME280;66382;52.252;8.780;2023-03-11T01:18:19;99321.53;;;1.35;75.55
77321;BME280;66382;52.252;8.780;2023-03-11T01:20:45;99316.59;;;1.32;75.35
77321;BME280;66382;52.252;8.780;2023-03-11T01:23:14;99325.47;;;1.31;74.61
77321;BME280;66382;52.252;8.780;2023-03-11T01:25:40;99327.97;;;1.32;75.42
77321;BME280;66382;52.252;8.780;2023-03-11T01:28:06;99337.03;;;1.29;75.31
77321;BME280;66382;52.252;8.780;2023-03-11T01:30:31;99330.94;;;1.29;75.05
77321;BME280;66382;52.252;8.780;2023-03-11T01:32:57;99337.03;;;1.29;75.13
77321;BME280;66382;52.252;8.780;2023-03-11T01:35:26;99340.63;;;1.28;75.15
77321;BME280;66382;52.252;8.780;2023-03-11T01:37:52;99346.44;;;1.32;75.33
77321;BME280;66382;52.252;8.780;2023-03-11T01:40:22;99347.13;;;1.34;75.47
77321;BME280;66382;52.252;8.780;2023-03-11T01:42:48;99349.59;;;1.36;75.03
77321;BME280;66382;52.252;8.780;2023-03-11T01:45:40;99346.81;;;1.37;74.96
77321;BME280;66382;52.252;8.780;2023-03-11T01:48:06;99351.59;;;1.34;74.70
77321;BME280;66382;52.252;8.780;2023-03-11T01:50:34;99362.63;;;1.29;75.48
77321;BME280;66382;52.252;8.780;2023-03-11T01:53:01;99365.41;;;1.27;75.44
77321;BME280;66382;52.252;8.780;2023-03-11T01:55:30;99373.16;;;1.29;75.06
77321;BME280;66382;52.252;8.780;2023-03-11T01:57:56;99376.78;;;1.28;75.62
77321;BME280;66382;52.252;8.780;2023-03-11T02:00:23;99383.06;;;1.27;75.80
77321;BME280;66382;52.252;8.780;2023-03-11T02:02:51;99389.69;;;1.31;75.54
77321;BME280;66382;52.252;8.780;2023-03-11T02:05:19;99385.03;;;1.25;75.22
77321;BME280;66382;52.252;8.780;2023-03-11T02:07:45;99387.88;;;1.32;75.01
77321;BME280;66382;52.252;8.780;2023-03-11T02:10:12;99392.00;;;1.34;75.60
77321;BME280;66382;52.252;8.780;2023-03-11T02:12:40;99390.69;;;1.38;75.30
77321;BME280;66382;52.252;8.780;2023-03-11T02:15:08;99388.06;;;1.38;75.40
77321;BME280;66382;52.252;8.780;2023-03-11T02:17:36;99390.03;;;1.36;75.27
77321;BME280;66382;52.252;8.780;2023-03-11T02:20:15;99392.19;;;1.41;74.97
77321;BME280;66382;52.252;8.780;2023-03-11T02:22:43;99384.28;;;1.41;75.50
77321;BME280;66382;52.252;8.780;2023-03-11T02:25:15;99398.97;;;1.43;75.75
77321;BME280;66382;52.252;8.780;2023-03-11T02:27:46;99395.38;;;1.44;75.52
77321;BME280;66382;52.252;8.780;2023-03-11T02:30:14;99389.09;;;1.45;75.00
77321;BME280;66382;52.252;8.780;2023-03-11T02:32:42;99396.03;;;1.46;75.39
77321;BME280;66382;52.252;8.780;2023-03-11T02:35:09;99398.50;;;1.48;75.21
77321;BME280;66382;52.252;8.780;2023-03-11T02:37:35;99401.16;;;1.48;75.30
77321;BME280;66382;52.252;8.780;2023-03-11T02:40:31;99403.66;;;1.49;75.00
77321;BME280;66382;52.252;8.780;2023-03-11T02:43:02;99399.50;;;1.47;74.75
77321;BME280;66382;52.252;8.780;2023-03-11T02:45:31;99407.56;;;1.45;75.30
77321;BME280;66382;52.252;8.780;2023-03-11T02:47:58;99410.38;;;1.44;75.24
77321;BME280;66382;52.252;8.780;2023-03-11T02:50:26;99405.34;;;1.33;74.90
77321;BME280;66382;52.252;8.780;2023-03-11T02:52:53;99410.19;;;1.37;74.97
77321;BME280;66382;52.252;8.780;2023-03-11T02:55:19;99410.31;;;1.36;74.82
77321;BME280;66382;52.252;8.780;2023-03-11T02:57:46;99408.69;;;1.35;74.90
77321;BME280;66382;52.252;8.780;2023-03-11T03:00:14;99416.25;;;1.29;74.66
77321;BME280;66382;52.252;8.780;2023-03-11T03:02:42;99417.53;;;1.25;74.36
77321;BME280;66382;52.252;8.780;2023-03-11T03:05:08;99423.25;;;1.21;75.43
77321;BME280;66382;52.252;8.780;2023-03-11T03:07:34;99424.41;;;1.18;75.29
77321;BME280;66382;52.252;8.780;2023-03-11T03:09:59;99428.34;;;1.14;74.84
77321;BME280;66382;52.252;8.780;2023-03-11T03:12:25;99439.88;;;1.13;75.05
77321;BME280;66382;52.252;8.780;2023-03-11T03:14:51;99438.38;;;1.11;74.89
77321;BME280;66382;52.252;8.780;2023-03-11T03:17:18;99448.78;;;1.12;74.36
77321;BME280;66382;52.252;8.780;2023-03-11T03:19:44;99447.97;;;1.12;75.20
77321;BME280;66382;52.252;8.780;2023-03-11T03:22:09;99451.44;;;1.12;75.19
77321;BME280;66382;52.252;8.780;2023-03-11T03:24:35;99449.94;;;1.10;74.64
77321;BME280;66382;52.252;8.780;2023-03-11T03:27:01;99452.78;;;0.98;74.94
77321;BME280;66382;52.252;8.780;2023-03-11T03:29:26;99461.09;;;1.03;75.22
77321;BME280;66382;52.252;8.780;2023-03-11T03:31:52;99469.00;;;1.03;74.75
77321;BME280;66382;52.252;8.780;2023-03-11T03:34:19;99470.38;;;1.07;74.91
77321;BME280;66382;52.252;8.780;2023-03-11T03:36:45;99476.31;;;1.10;75.36
77321;BME280;66382;52.252;8.780;2023-03-11T03:39:10;99481.16;;;1.14;75.19
77321;BME280;66382;52.252;8.780;2023-03-11T03:41:36;99480.84;;;1.17;74.92
77321;BME280;66382;52.252;8.780;2023-03-11T03:44:02;99488.63;;;1.19;75.72
77321;BME280;66382;52.252;8.780;2023-03-11T03:46:28;99484.97;;;1.20;75.69
77321;BME280;66382;52.252;8.780;2023-03-11T03:48:53;99504.13;;;1.22;74.83
77321;BME280;66382;52.252;8.780;2023-03-11T03:51:21;99500.69;;;1.21;74.96
77321;BME280;66382;52.252;8.780;2023-03-11T03:53:46;99506.91;;;1.20;75.08
77321;BME280;66382;52.252;8.780;2023-03-11T03:56:14;99516.81;;;1.18;74.66
77321;BME280;66382;52.252;8.780;2023-03-11T03:58:40;99510.84;;;1.16;74.96
77321;BME280;66382;52.252;8.780;2023-03-11T04:01:07;99518.94;;;1.15;74.94
77321;BME280;66382;52.252;8.780;2023-03-11T04:03:33;99517.25;;;1.14;74.93
77321;BME280;66382;52.252;8.780;2023-03-11T04:06:07;99524.88;;;1.17;74.85
77321;BME280;66382;52.252;8.780;2023-03-11T04:08:35;99515.47;;;1.14;75.59
77321;BME280;66382;52.252;8.780;2023-03-11T04:11:01;99527.66;;;1.15;75.01
77321;BME280;66382;52.252;8.780;2023-03-11T04:13:26;99525.72;;;1.17;74.90
77321;BME280;66382;52.252;8.780;2023-03-11T04:15:52;99526.84;;;1.15;75.43
77321;BME280;66382;52.252;8.780;2023-03-11T04:18:18;99530.63;;;1.12;75.03
77321;BME280;66382;52.252;8.780;2023-03-11T04:20:43;99531.38;;;1.04;74.49
77321;BME280;66382;52.252;8.780;2023-03-11T04:23:09;99536.50;;;1.06;74.44
77321;BME280;66382;52.252;8.780;2023-03-11T04:25:36;99533.84;;;1.06;75.20
77321;BME280;66382;52.252;8.780;2023-03-11T04:28:02;99541.78;;;1.06;75.45
77321;BME280;66382;52.252;8.780;2023-03-11T04:30:28;99541.94;;;1.04;73.96
77321;BME280;66382;52.252;8.780;2023-03-11T04:32:54;99547.50;;;1.01;73.81
77321;BME280;66382;52.252;8.780;2023-03-11T04:35:19;99548.94;;;0.96;74.20
77321;BME280;66382;52.252;8.780;2023-03-11T04:37:45;99554.53;;;0.93;74.24
77321;BME280;66382;52.252;8.780;2023-03-11T04:40:11;99553.31;;;0.87;73.62
77321;BME280;66382;52.252;8.780;2023-03-11T04:42:38;99567.09;;;0.81;73.74
77321;BME280;66382;52.252;8.780;2023-03-11T04:45:05;99558.28;;;0.72;74.23
77321;BME280;66382;52.252;8.780;2023-03-11T04:47:31;99565.06;;;0.75;73.67
77321;BME280;66382;52.252;8.780;2023-03-11T04:49:57;99568.13;;;0.70;73.76
77321;BME280;66382;52.252;8.780;2023-03-11T04:52:22;99570.38;;;0.65;73.61
77321;BME280;66382;52.252;8.780;2023-03-11T04:54:48;99574.00;;;0.64;73.50
77321;BME280;66382;52.252;8.780;2023-03-11T04:57:14;99579.72;;;0.59;74.08
77321;BME280;66382;52.252;8.780;2023-03-11T04:59:41;99572.69;;;0.50;73.82
77321;BME280;66382;52.252;8.780;2023-03-11T05:02:06;99594.19;;;0.55;73.82
77321;BME280;66382;52.252;8.780;2023-03-11T05:04:32;99596.25;;;0.52;73.34
77321;BME280;66382;52.252;8.780;2023-03-11T05:06:58;99595.59;;;0.50;74.43
77321;BME280;66382;52.252;8.780;2023-03-11T05:09:24;99601.84;;;0.49;73.63
77321;BME280;66382;52.252;8.780;2023-03-11T05:11:49;99594.34;;;0.44;74.37
77321;BME280;66382;52.252;8.780;2023-03-11T05:14:15;99604.63;;;0.47;73.99
77321;BME280;66382;52.252;8.780;2023-03-11T05:16:42;99603.94;;;0.45;74.68
77321;BME280;66382;52.252;8.780;2023-03-11T05:19:08;99608.22;;;0.46;74.36
77321;BME280;66382;52.252;8.780;2023-03-11T05:21:33;99598.53;;;0.37;73.67
77321;BME280;66382;52.252;8.780;2023-03-11T05:23:59;99614.75;;;0.42;74.15
77321;BME280;66382;52.252;8.780;2023-03-11T05:26:25;99608.13;;;0.38;73.55
77321;BME280;66382;52.252;8.780;2023-03-11T05:28:50;99618.97;;;0.35;74.37
77321;BME280;66382;52.252;8.780;2023-03-11T05:31:16;99626.03;;;0.34;73.54
77321;BME280;66382;52.252;8.780;2023-03-11T05:33:43;99624.69;;;0.30;73.53
77321;BME280;66382;52.252;8.780;2023-03-11T05:36:09;99624.69;;;0.30;73.37
77321;BME280;66382;52.252;8.780;2023-03-11T05:38:35;99620.94;;;0.33;74.59
77321;BME280;66382;52.252;8.780;2023-03-11T05:41:01;99629.91;;;0.40;73.91
77321;BME280;66382;52.252;8.780;2023-03-11T05:43:27;99638.22;;;0.45;74.82
77321;BME280;66382;52.252;8.780;2023-03-11T05:45:53;99627.38;;;0.48;73.84
77321;BME280;66382;52.252;8.780;2023-03-11T05:48:19;99642.91;;;0.51;74.54
77321;BME280;66382;52.252;8.780;2023-03-11T05:50:46;99645.94;;;0.56;74.21
77321;BME280;66382;52.252;8.780;2023-03-11T05:53:11;99644.59;;;0.52;73.95
77321;BME280;66382;52.252;8.780;2023-03-11T05:55:37;99656.47;;;0.56;73.68
77321;BME280;66382;52.252;8.780;2023-03-11T05:58:03;99659.50;;;0.61;75.12
77321;BME280;66382;52.252;8.780;2023-03-11T06:00:28;99665.19;;;0.67;74.71
77321;BME280;66382;52.252;8.780;2023-03-11T06:02:54;99672.53;;;0.73;74.23
77321;BME280;66382;52.252;8.780;2023-03-11T06:05:20;99678.19;;;0.78;75.14
77321;BME280;66382;52.252;8.780;2023-03-11T06:07:47;99675.81;;;0.84;74.56
77321;BME280;66382;52.252;8.780;2023-03-11T06:10:13;99682.59;;;0.87;73.89
77321;BME280;66382;52.252;8.780;2023-03-11T06:12:38;99680.94;;;0.86;73.81
77321;BME280;66382;52.252;8.780;2023-03-11T06:15:06;99685.00;;;0.80;74.01
77321;BME280;66382;52.252;8.780;2023-03-11T06:17:31;99685.38;;;0.85;74.52
77321;BME280;66382;52.252;8.780;2023-03-11T06:19:57;99689.09;;;0.93;73.84
77321;BME280;66382;52.252;8.780;2023-03-11T06:22:23;99697.03;;;0.93;74.50
77321;BME280;66382;52.252;8.780;2023-03-11T06:24:50;99700.88;;;0.98;74.10
77321;BME280;66382;52.252;8.780;2023-03-11T06:27:16;99700.31;;;1.04;74.32
77321;BME280;66382;52.252;8.780;2023-03-11T06:29:42;99703.31;;;1.10;73.63
77321;BME280;66382;52.252;8.780;2023-03-11T06:32:07;99703.31;;;1.10;73.62
77321;BME280;66382;52.252;8.780;2023-03-11T06:34:33;99703.84;;;1.13;74.15
77321;BME280;66382;52.252;8.780;2023-03-11T06:36:59;99709.97;;;1.14;74.34
77321;BME280;66382;52.252;8.780;2023-03-11T06:39:24;99714.09;;;1.16;73.85
77321;BME280;66382;52.252;8.780;2023-03-11T06:41:51;99719.25;;;1.18;73.90
77321;BME280;66382;52.252;8.780;2023-03-11T06:44:17;99719.94;;;1.20;73.96
77321;BME280;66382;52.252;8.780;2023-03-11T06:46:43;99726.75;;;1.22;73.78
77321;BME280;66382;52.252;8.780;2023-03-11T06:49:08;99723.97;;;1.24;73.31
77321;BME280;66382;52.252;8.780;2023-03-11T06:51:34;99737.81;;;1.26;72.94
77321;BME280;66382;52.252;8.780;2023-03-11T06:54:00;99732.72;;;1.24;72.66
77321;BME280;66382;52.252;8.780;2023-03-11T06:56:26;99735.34;;;1.24;73.68
77321;BME280;66382;52.252;8.780;2023-03-11T06:58:53;99712.75;;;1.12;73.66
77321;BME280;66382;52.252;8.780;2023-03-11T07:01:20;99738.50;;;1.28;73.70
77321;BME280;66382;52.252;8.780;2023-03-11T07:03:47;99753.34;;;1.39;73.65
77321;BME280;66382;52.252;8.780;2023-03-11T07:06:14;99755.69;;;1.42;73.21
77321;BME280;66382;52.252;8.780;2023-03-11T07:08:40;99763.59;;;1.42;72.92
77321;BME280;66382;52.252;8.780;2023-03-11T07:11:08;99768.72;;;1.43;73.36
77321;BME280;66382;52.252;8.780;2023-03-11T07:13:35;99764.88;;;1.38;72.58
77321;BME280;66382;52.252;8.780;2023-03-11T07:16:04;99767.66;;;1.36;72.51
77321;BME280;66382;52.252;8.780;2023-03-11T07:18:31;99770.16;;;1.38;72.67
77321;BME280;66382;52.252;8.780;2023-03-11T07:20:57;99773.63;;;1.38;72.65
77321;BME280;66382;52.252;8.780;2023-03-11T07:23:22;99781.34;;;1.49;72.97
77321;BME280;66382;52.252;8.780;2023-03-11T07:25:48;99792.16;;;1.56;73.04
77321;BME280;66382;52.252;8.780;2023-03-11T07:28:14;99791.72;;;1.61;72.26
77321;BME280;66382;52.252;8.780;2023-03-11T07:30:40;99793.50;;;1.60;72.30
77321;BME280;66382;52.252;8.780;2023-03-11T07:33:07;99791.81;;;1.69;72.40
77321;BME280;66382;52.252;8.780;2023-03-11T07:35:34;99811.22;;;1.78;71.82
77321;BME280;66382;52.252;8.780;2023-03-11T07:38:00;99803.22;;;1.87;72.73
77321;BME280;66382;52.252;8.780;2023-03-11T07:40:26;99804.06;;;2.24;73.21
77321;BME280;66382;52.252;8.780;2023-03-11T07:42:51;99817.38;;;3.02;74.39
77321;BME280;66382;52.252;8.780;2023-03-11T07:45:17;99810.13;;;3.89;74.10
77321;BME280;66382;52.252;8.780;2023-03-11T07:47:43;99820.63;;;4.81;74.10
77321;BME280;66382;52.252;8.780;2023-03-11T07:50:10;99820.22;;;5.56;73.63
77321;BME280;66382;52.252;8.780;2023-03-11T07:52:36;99832.34;;;6.29;71.03
77321;BME280;66382;52.252;8.780;2023-03-11T07:55:03;99823.59;;;6.96;70.58
77321;BME280;66382;52.252;8.780;2023-03-11T07:57:28;99833.09;;;7.58;68.04
77321;BME280;66382;52.252;8.780;2023-03-11T07:59:54;99831.88;;;8.12;67.80
77321;BME280;66382;52.252;8.780;2023-03-11T08:02:20;99845.53;;;8.60;67.61
77321;BME280;66382;52.252;8.780;2023-03-11T08:04:45;99844.66;;;9.02;66.88
77321;BME280;66382;52.252;8.780;2023-03-11T08:07:13;99855.00;;;9.40;65.00
77321;BME280;66382;52.252;8.780;2023-03-11T08:09:38;99853.94;;;9.69;65.09
77321;BME280;66382;52.252;8.780;2023-03-11T08:12:04;99864.75;;;10.03;64.91
77321;BME280;66382;52.252;8.780;2023-03-11T08:14:30;99865.50;;;10.31;65.16
77321;BME280;66382;52.252;8.780;2023-03-11T08:16:56;99869.88;;;10.59;63.60
77321;BME280;66382;52.252;8.780;2023-03-11T08:19:21;99868.25;;;10.78;63.34
77321;BME280;66382;52.252;8.780;2023-03-11T08:21:47;99880.84;;;11.11;64.76
77321;BME280;66382;52.252;8.780;2023-03-11T08:24:14;99883.91;;;11.48;63.66
77321;BME280;66382;52.252;8.780;2023-03-11T08:26:41;99887.34;;;11.75;62.49
77321;BME280;66382;52.252;8.780;2023-03-11T08:29:06;99886.66;;;11.86;62.54
77321;BME280;66382;52.252;8.780;2023-03-11T08:31:33;99886.84;;;12.04;63.42
77321;BME280;66382;52.252;8.780;2023-03-11T08:34:01;99874.25;;;11.98;62.18
77321;BME280;66382;52.252;8.780;2023-03-11T08:36:27;99882.81;;;12.27;61.57
77321;BME280;66382;52.252;8.780;2023-03-11T08:38:53;99879.56;;;12.50;60.22
77321;BME280;66382;52.252;8.780;2023-03-11T08:41:20;99887.63;;;12.57;62.98
77321;BME280;66382;52.252;8.780;2023-03-11T08:43:46;99891.34;;;12.81;62.22
77321;BME280;66382;52.252;8.780;2023-03-11T08:46:14;99890.38;;;13.00;62.92
77321;BME280;66382;52.252;8.780;2023-03-11T08:48:42;99893.94;;;13.01;61.40
77321;BME280;66382;52.252;8.780;2023-03-11T08:51:09;99898.69;;;12.99;59.85
77321;BME280;66382;52.252;8.780;2023-03-11T08:53:35;99903.63;;;13.02;60.19
77321;BME280;66382;52.252;8.780;2023-03-11T08:56:00;99904.19;;;13.10;61.43
77321;BME280;66382;52.252;8.780;2023-03-11T08:58:27;99908.72;;;13.10;62.20
77321;BME280;66382;52.252;8.780;2023-03-11T09:00:53;99909.56;;;13.10;63.98
77321;BME280;66382;52.252;8.780;2023-03-11T09:03:19;99919.59;;;12.97;60.29
77321;BME280;66382;52.252;8.780;2023-03-11T09:05:44;99914.66;;;12.94;62.50
77321;BME280;66382;52.252;8.780;2023-03-11T09:08:10;99918.47;;;13.11;60.78
77321;BME280;66382;52.252;8.780;2023-03-11T09:10:36;99922.59;;;13.13;59.72
77321;BME280;66382;52.252;8.780;2023-03-11T09:13:01;99935.16;;;13.20;62.27
77321;BME280;66382;52.252;8.780;2023-03-11T09:15:29;99929.63;;;13.40;60.73
77321;BME280;66382;52.252;8.780;2023-03-11T09:17:54;99934.50;;;13.49;61.27
77321;BME280;66382;52.252;8.780;2023-03-11T09:20:20;99932.13;;;13.60;61.40
77321;BME280;66382;52.252;8.780;2023-03-11T09:22:46;99930.28;;;13.79;61.65
77321;BME280;66382;52.252;8.780;2023-03-11T09:25:13;99939.78;;;13.81;60.27
77321;BME280;66382;52.252;8.780;2023-03-11T09:27:39;99935.06;;;13.76;60.06
77321;BME280;66382;52.252;8.780;2023-03-11T09:30:06;99946.25;;;13.80;59.41
77321;BME280;66382;52.252;8.780;2023-03-11T09:32:33;99939.94;;;13.86;58.64
77321;BME280;66382;52.252;8.780;2023-03-11T09:34:59;99945.84;;;13.76;63.39
77321;BME280;66382;52.252;8.780;2023-03-11T09:37:25;99954.38;;;13.73;60.25
77321;BME280;66382;52.252;8.780;2023-03-11T09:39:51;99937.56;;;13.78;63.02
77321;BME280;66382;52.252;8.780;2023-03-11T09:42:20;99948.34;;;13.78;60.21
77321;BME280;66382;52.252;8.780;2023-03-11T09:44:53;99944.44;;;13.74;60.69
77321;BME280;66382;52.252;8.780;2023-03-11T09:47:45;99954.69;;;13.84;64.98
77321;BME280;66382;52.252;8.780;2023-03-11T09:50:21;99961.28;;;14.06;63.26
77321;BME280;66382;52.252;8.780;2023-03-11T09:52:57;99956.44;;;14.15;62.33
77321;BME280;66382;52.252;8.780;2023-03-11T09:55:38;99962.44;;;14.17;62.96
77321;BME280;66382;52.252;8.780;2023-03-11T09:58:16;99949.75;;;14.17;62.11
77321;BME280;66382;52.252;8.780;2023-03-11T10:00:44;99953.34;;;14.30;63.78
77321;BME280;66382;52.252;8.780;2023-03-11T10:03:25;99950.25;;;14.26;63.60
77321;BME280;66382;52.252;8.780;2023-03-11T10:05:59;99955.81;;;14.31;59.63
77321;BME280;66382;52.252;8.780;2023-03-11T10:08:32;99947.03;;;14.36;61.31
77321;BME280;66382;52.252;8.780;2023-03-11T10:11:08;99961.34;;;14.55;62.22
77321;BME280;66382;52.252;8.780;2023-03-11T10:13:41;99951.53;;;14.42;60.58
77321;BME280;66382;52.252;8.780;2023-03-11T10:16:16;99960.63;;;14.29;61.26
77321;BME280;66382;52.252;8.780;2023-03-11T10:18:51;99967.50;;;14.25;60.80
77321;BME280;66382;52.252;8.780;2023-03-11T10:21:29;99973.13;;;14.24;61.97
77321;BME280;66382;52.252;8.780;2023-03-11T10:24:10;99964.94;;;14.12;61.08
77321;BME280;66382;52.252;8.780;2023-03-11T10:26:41;99968.91;;;14.09;59.83
77321;BME280;66382;52.252;8.780;2023-03-11T10:29:14;99972.66;;;14.27;61.60
77321;BME280;66382;52.252;8.780;2023-03-11T10:31:44;99981.56;;;14.46;60.02
77321;BME280;66382;52.252;8.780;2023-03-11T10:34:17;99974.16;;;14.41;60.51
77321;BME280;66382;52.252;8.780;2023-03-11T10:36:51;99978.22;;;14.32;59.94
77321;BME280;66382;52.252;8.780;2023-03-11T10:39:18;99982.91;;;14.36;59.07
77321;BME280;66382;52.252;8.780;2023-03-11T10:41:49;99982.19;;;14.29;60.50
77321;BME280;66382;52.252;8.780;2023-03-11T10:44:20;99986.66;;;13.98;56.31
77321;BME280;66382;52.252;8.780;2023-03-11T10:46:47;99981.78;;;13.70;54.17
77321;BME280;66382;52.252;8.780;2023-03-11T10:49:16;99989.75;;;13.33;55.84
77321;BME280;66382;52.252;8.780;2023-03-11T10:51:44;99989.78;;;12.95;53.51
77321;BME280;66382;52.252;8.780;2023-03-11T10:54:21;100002.41;;;12.56;56.12
77321;BME280;66382;52.252;8.780;2023-03-11T10:56:52;100002.53;;;12.16;55.94
77321;BME280;66382;52.252;8.780;2023-03-11T10:59:23;100004.69;;;11.68;55.57
77321;BME280;66382;52.252;8.780;2023-03-11T11:01:53;100002.81;;;11.35;56.40
77321;BME280;66382;52.252;8.780;2023-03-11T11:04:27;100008.34;;;11.00;56.59
77321;BME280;66382;52.252;8.780;2023-03-11T11:06:53;100002.91;;;10.67;57.77
77321;BME280;66382;52.252;8.780;2023-03-11T11:09:21;99999.28;;;10.40;56.30
77321;BME280;66382;52.252;8.780;2023-03-11T11:12:01;100007.84;;;10.22;58.84
77321;BME280;66382;52.252;8.780;2023-03-11T11:14:41;100008.78;;;10.07;58.54
77321;BME280;66382;52.252;8.780;2023-03-11T11:17:15;100008.91;;;9.93;57.87
77321;BME280;66382;52.252;8.780;2023-03-11T11:19:44;100013.31;;;9.72;58.11
77321;BME280;66382;52.252;8.780;2023-03-11T11:22:15;100012.75;;;9.55;57.48
77321;BME280;66382;52.252;8.780;2023-03-11T11:24:43;100009.72;;;9.37;56.98
77321;BME280;66382;52.252;8.780;2023-03-11T11:27:15;100014.13;;;9.23;58.48
77321;BME280;66382;52.252;8.780;2023-03-11T11:29:41;100015.44;;;9.12;58.05
77321;BME280;66382;52.252;8.780;2023-03-11T11:32:18;100015.41;;;9.06;59.67
77321;BME280;66382;52.252;8.780;2023-03-11T11:34:56;100015.50;;;8.97;59.67
77321;BME280;66382;52.252;8.780;2023-03-11T11:37:23;100015.75;;;8.81;57.79
77321;BME280;66382;52.252;8.780;2023-03-11T11:39:52;100004.47;;;8.64;58.78
77321;BME280;66382;52.252;8.780;2023-03-11T11:42:20;100013.88;;;8.60;57.75
77321;BME280;66382;52.252;8.780;2023-03-11T11:44:50;100012.94;;;8.53;59.17
77321;BME280;66382;52.252;8.780;2023-03-11T11:47:20;100016.00;;;8.50;59.66
77321;BME280;66382;52.252;8.780;2023-03-11T11:49:53;100015.91;;;8.43;58.88
77321;BME280;66382;52.252;8.780;2023-03-11T11:52:22;100011.31;;;8.22;57.33
77321;BME280;66382;52.252;8.780;2023-03-11T11:54:51;100019.44;;;8.14;58.49
77321;BME280;66382;52.252;8.780;2023-03-11T11:57:21;100004.22;;;8.14;60.10
77321;BME280;66382;52.252;8.780;2023-03-11T11:59:47;100009.75;;;8.13;58.64
77321;BME280;66382;52.252;8.780;2023-03-11T12:02:27;100005.69;;;8.17;59.64
77321;BME280;66382;52.252;8.780;2023-03-11T12:04:59;100011.03;;;8.17;60.53
77321;BME280;66382;52.252;8.780;2023-03-11T12:07:42;100009.66;;;8.21;59.48
77321;BME280;66382;52.252;8.780;2023-03-11T12:10:20;100011.97;;;8.24;59.99
77321;BME280;66382;52.252;8.780;2023-03-11T12:12:58;100012.13;;;8.23;60.14
77321;BME280;66382;52.252;8.780;2023-03-11T12:15:31;100009.56;;;8.14;60.47
77321;BME280;66382;52.252;8.780;2023-03-11T12:18:03;100011.97;;;8.09;59.25
77321;BME280;66382;52.252;8.780;2023-03-11T12:20:37;100017.84;;;8.19;59.88
77321;BME280;66382;52.252;8.780;2023-03-11T12:23:16;100011.97;;;8.24;59.43
77321;BME280;66382;52.252;8.780;2023-03-11T12:25:54;100006.09;;;8.14;58.77
77321;BME280;66382;52.252;8.780;2023-03-11T12:28:31;100010.78;;;8.12;58.97
77321;BME280;66382;52.252;8.780;2023-03-11T12:30:59;100013.72;;;8.17;60.69
77321;BME280;66382;52.252;8.780;2023-03-11T12:33:30;100012.69;;;8.18;59.35
77321;BME280;66382;52.252;8.780;2023-03-11T12:35:59;100014.16;;;8.21;59.06
77321;BME280;66382;52.252;8.780;2023-03-11T12:38:30;100014.44;;;8.11;58.20
77321;BME280;66382;52.252;8.780;2023-03-11T12:40:59;100013.72;;;7.87;58.29
77321;BME280;66382;52.252;8.780;2023-03-11T12:43:57;100021.31;;;7.75;59.80
77321;BME280;66382;52.252;8.780;2023-03-11T12:47:02;100022.59;;;7.65;59.01
77321;BME280;66382;52.252;8.780;2023-03-11T12:49:29;100019.66;;;7.60;58.37
77321;BME280;66382;52.252;8.780;2023-03-11T12:52:06;100021.13;;;7.62;59.74
77321;BME280;66382;52.252;8.780;2023-03-11T12:54:42;100023.44;;;7.65;58.08
77321;BME280;66382;52.252;8.780;2023-03-11T12:57:26;100029.13;;;7.62;59.85
77321;BME280;66382;52.252;8.780;2023-03-11T13:00:23;100029.19;;;7.54;59.30
77321;BME280;66382;52.252;8.780;2023-03-11T13:03:26;100022.63;;;7.42;58.99
77321;BME280;66382;52.252;8.780;2023-03-11T13:06:01;100025.38;;;7.33;57.29
77321;BME280;66382;52.252;8.780;2023-03-11T13:08:44;100028.22;;;7.32;59.16
77321;BME280;66382;52.252;8.780;2023-03-11T13:11:27;100021.94;;;7.25;59.16
77321;BME280;66382;52.252;8.780;2023-03-11T13:14:08;100029.41;;;7.29;59.11